createdAt,value
2018-11-29T00:00:30.317Z,-2.72
2018-11-29T00:02:59.213Z,-2.71
2018-11-29T00:05:27.991Z,-2.51
2018-11-29T00:07:56.750Z,-2.35
2018-11-29T00:10:25.600Z,-2.35
2018-11-29T00:12:54.473Z,-2.48
2018-11-29T00:15:23.716Z,-2.50
2018-11-29T00:17:52.579Z,-2.41
2018-11-29T00:20:21.648Z,-2.47
2018-11-29T00:22:51.184Z,-2.51
2018-11-29T00:25:20.499Z,-2.44
2018-11-29T00:27:49.675Z,-2.47
2018-11-29T00:30:21.529Z,-2.45
2018-11-29T00:32:51.034Z,-2.27
2018-11-29T00:35:20.273Z,-2.45
2018-11-29T00:37:49.172Z,-2.45
2018-11-29T00:40:20.711Z,-2.32
2018-11-29T00:42:49.911Z,-2.49
2018-11-29T00:45:19.830Z,-2.53
2018-11-29T00:47:49.029Z,-2.41
2018-11-29T00:50:18.772Z,-2.42
2018-11-29T00:52:48.393Z,-2.37
2018-11-29T00:55:20.820Z,-2.42
2018-11-29T00:57:49.687Z,-2.24
2018-11-29T01:00:24.335Z,-2.09
2018-11-29T01:02:53.679Z,-2.22
2018-11-29T01:05:22.475Z,-2.12
2018-11-29T01:07:51.255Z,-2.16
2018-11-29T01:10:20.302Z,-2.31
2018-11-29T01:12:49.518Z,-2.26
2018-11-29T01:15:20.175Z,-2.34
2018-11-29T01:17:50.424Z,-2.32
2018-11-29T01:20:20.458Z,-2.54
2018-11-29T01:22:49.408Z,-2.45
2018-11-29T01:25:18.760Z,-2.50
2018-11-29T01:27:48.862Z,-2.49
2018-11-29T01:30:19.110Z,-2.46
2018-11-29T01:32:47.957Z,-2.41
2018-11-29T01:35:17.959Z,-2.33
2018-11-29T01:37:46.855Z,-2.31
2018-11-29T01:40:18.061Z,-2.26
2018-11-29T01:42:49.017Z,-2.18
2018-11-29T01:45:17.756Z,-2.42
2018-11-29T01:47:46.530Z,-2.44
2018-11-29T01:50:15.432Z,-2.28
2018-11-29T01:52:44.229Z,-2.22
2018-11-29T01:55:13.031Z,-2.25
2018-11-29T01:57:41.850Z,-2.31
2018-11-29T02:00:14.788Z,-2.28
2018-11-29T02:02:44.043Z,-2.26
2018-11-29T02:05:14.347Z,-2.40
2018-11-29T02:07:43.100Z,-2.39
2018-11-29T02:10:18.114Z,-2.28
2018-11-29T02:12:47.352Z,-2.19
2018-11-29T02:15:16.303Z,-2.17
2018-11-29T02:17:45.165Z,-2.14
2018-11-29T02:20:16.240Z,-2.06
2018-11-29T02:22:45.144Z,-1.95
2018-11-29T02:25:14.096Z,-1.90
2018-11-29T02:27:42.964Z,-1.95
2018-11-29T02:30:19.547Z,-1.96
2018-11-29T02:32:48.622Z,-1.87
2018-11-29T02:35:17.494Z,-1.91
2018-11-29T02:37:47.656Z,-1.82
2018-11-29T02:40:17.242Z,-1.92
2018-11-29T02:42:46.345Z,-1.91
2018-11-29T02:45:18.486Z,-1.86
2018-11-29T02:47:47.934Z,-1.92
2018-11-29T02:50:16.726Z,-2.04
2018-11-29T02:52:45.536Z,-1.90
2018-11-29T02:55:14.420Z,-1.83
2018-11-29T02:57:43.300Z,-1.72
2018-11-29T03:00:17.990Z,-1.61
2018-11-29T03:02:46.847Z,-1.64
2018-11-29T03:05:16.012Z,-1.57
2018-11-29T03:07:45.210Z,-1.49
2018-11-29T03:10:15.530Z,-1.39
2018-11-29T03:12:44.396Z,-1.42
2018-11-29T03:15:14.826Z,-1.56
2018-11-29T03:17:44.120Z,-1.51
2018-11-29T03:20:15.109Z,-1.47
2018-11-29T03:22:43.950Z,-1.48
2018-11-29T03:25:14.031Z,-1.44
2018-11-29T03:27:42.902Z,-1.35
2018-11-29T03:30:15.555Z,-1.40
2018-11-29T03:32:44.347Z,-1.38
2018-11-29T03:35:13.847Z,-1.40
2018-11-29T03:37:42.707Z,-1.49
2018-11-29T03:40:13.850Z,-1.59
2018-11-29T03:42:42.621Z,-1.70
2018-11-29T03:45:12.568Z,-1.72
2018-11-29T03:47:41.440Z,-1.80
2018-11-29T03:50:12.451Z,-1.81
2018-11-29T03:52:41.248Z,-1.79
2018-11-29T03:55:11.090Z,-1.76
2018-11-29T03:57:40.358Z,-1.73
2018-11-29T04:00:15.284Z,-1.78
2018-11-29T04:02:44.677Z,-1.64
2018-11-29T04:05:13.562Z,-1.81
2018-11-29T04:07:42.356Z,-1.92
2018-11-29T04:10:12.423Z,-2.05
2018-11-29T04:12:41.470Z,-2.13
2018-11-29T04:15:11.969Z,-2.10
2018-11-29T04:17:41.334Z,-2.08
2018-11-29T04:20:13.048Z,-2.07
2018-11-29T04:22:41.838Z,-2.10
2018-11-29T04:25:12.639Z,-2.24
2018-11-29T04:27:41.476Z,-2.48
2018-11-29T04:30:12.437Z,-2.44
2018-11-29T04:32:41.232Z,-2.46
2018-11-29T04:35:11.067Z,-2.33
2018-11-29T04:37:40.370Z,-2.42
2018-11-29T04:40:12.759Z,-2.45
2018-11-29T04:42:41.978Z,-2.52
2018-11-29T04:45:11.946Z,-2.33
2018-11-29T04:47:40.774Z,-2.45
2018-11-29T04:50:09.603Z,-2.46
2018-11-29T04:52:38.389Z,-2.45
2018-11-29T04:55:08.394Z,-2.45
2018-11-29T04:57:37.446Z,-2.33
2018-11-29T05:00:12.921Z,-2.29
2018-11-29T05:02:41.747Z,-2.31
2018-11-29T05:05:11.353Z,-2.26
2018-11-29T05:07:40.441Z,-2.15
2018-11-29T05:10:10.905Z,-2.15
2018-11-29T05:12:39.709Z,-2.19
2018-11-29T05:15:10.447Z,-2.24
2018-11-29T05:17:39.277Z,-2.33
2018-11-29T05:20:08.271Z,-2.50
2018-11-29T05:22:37.094Z,-2.67
2018-11-29T05:25:06.934Z,-2.53
2018-11-29T05:27:35.769Z,-2.74
2018-11-29T05:36:56.616Z,-2.82
2018-11-29T05:39:25.406Z,-2.91
2018-11-29T05:41:54.227Z,-2.82
2018-11-29T05:44:22.951Z,-2.61
2018-11-29T05:46:51.776Z,-2.44
2018-11-29T05:49:20.573Z,-2.32
2018-11-29T05:51:49.404Z,-2.46
2018-11-29T05:54:18.316Z,-2.72
2018-11-29T05:56:53.745Z,-2.23
2018-11-29T05:59:22.542Z,-2.26
2018-11-29T06:01:52.440Z,-2.33
2018-11-29T06:04:21.241Z,-2.31
2018-11-29T06:06:50.368Z,-2.43
2018-11-29T06:09:19.198Z,-2.52
2018-11-29T06:11:48.010Z,-2.42
2018-11-29T06:14:16.881Z,-2.18
2018-11-29T06:16:45.683Z,-2.37
2018-11-29T06:19:14.491Z,-2.26
2018-11-29T06:21:43.317Z,-2.20
2018-11-29T06:24:13.675Z,-2.20
2018-11-29T06:26:41.002Z,-2.27
2018-11-29T06:29:09.830Z,-2.51
2018-11-29T06:31:38.664Z,-2.84
2018-11-29T06:34:07.960Z,-2.88
2018-11-29T06:36:36.794Z,-2.84
2018-11-29T06:39:08.466Z,-2.90
2018-11-29T06:41:37.232Z,-3.13
2018-11-29T06:44:06.232Z,-3.04
2018-11-29T06:46:34.952Z,-3.09
2018-11-29T06:49:03.743Z,-2.94
2018-11-29T06:51:32.565Z,-3.12
2018-11-29T06:54:01.384Z,-3.05
2018-11-29T06:56:30.177Z,-2.93
2018-11-29T06:58:59.062Z,-2.77
2018-11-29T07:01:27.854Z,-2.66
2018-11-29T07:03:56.729Z,-2.72
2018-11-29T07:06:25.575Z,-2.88
2018-11-29T07:08:54.414Z,-2.77
2018-11-29T07:11:23.221Z,-2.39
2018-11-29T07:13:52.016Z,-2.37
2018-11-29T07:16:21.172Z,-2.23
2018-11-29T07:18:50.070Z,-2.02
2018-11-29T07:21:29.814Z,-1.91
2018-11-29T07:23:58.594Z,-2.09
2018-11-29T07:26:27.376Z,-2.31
2018-11-29T07:28:56.173Z,-2.18
2018-11-29T07:31:24.967Z,-2.28
2018-11-29T07:33:53.824Z,-2.28
2018-11-29T07:36:22.679Z,-2.07
2018-11-29T07:38:51.440Z,-1.95
2018-11-29T07:41:20.273Z,-2.03
2018-11-29T07:43:49.095Z,-2.01
2018-11-29T07:46:17.911Z,-2.14
2018-11-29T07:48:46.838Z,-2.29
2018-11-29T07:51:15.624Z,-2.32
2018-11-29T07:53:44.542Z,-2.35
2018-11-29T07:56:13.331Z,-2.34
2018-11-29T07:58:42.133Z,-2.36
2018-11-29T08:01:10.968Z,-2.23
2018-11-29T08:03:39.795Z,-2.12
2018-11-29T08:06:08.540Z,-2.02
2018-11-29T08:08:37.330Z,-1.99
2018-11-29T08:11:06.413Z,-1.71
2018-11-29T08:13:35.232Z,-1.87
2018-11-29T08:16:04.043Z,-1.96
2018-11-29T08:18:32.992Z,-1.76
2018-11-29T08:21:01.778Z,-1.85
2018-11-29T08:23:30.563Z,-1.92
2018-11-29T08:25:59.757Z,-1.77
2018-11-29T08:28:28.558Z,-1.70
2018-11-29T08:30:57.360Z,-1.64
2018-11-29T08:33:26.180Z,-1.53
2018-11-29T08:35:55.026Z,-1.32
2018-11-29T08:38:23.781Z,-1.07
2018-11-29T08:40:53.231Z,-1.17
2018-11-29T08:43:22.240Z,-1.02
2018-11-29T08:45:51.010Z,-0.88
2018-11-29T08:48:19.838Z,-0.59
2018-11-29T08:50:48.626Z,-0.98
2018-11-29T08:53:17.407Z,-1.24
2018-11-29T08:55:46.177Z,-1.04
2018-11-29T08:58:14.930Z,-0.90
2018-11-29T09:00:43.741Z,-0.60
2018-11-29T09:03:12.528Z,-0.75
2018-11-29T09:05:41.439Z,-0.72
2018-11-29T09:08:10.266Z,-0.49
2018-11-29T09:10:39.127Z,-0.49
2018-11-29T09:13:07.853Z,-0.51
2018-11-29T09:15:36.666Z,-0.76
2018-11-29T09:18:05.399Z,-0.82
2018-11-29T09:20:34.213Z,-0.73
2018-11-29T09:23:03.038Z,-0.60
2018-11-29T09:25:31.872Z,-0.53
2018-11-29T09:28:00.768Z,-0.42
2018-11-29T09:30:29.608Z,-0.33
2018-11-29T09:32:58.444Z,-0.37
2018-11-29T09:35:27.380Z,-0.47
2018-11-29T09:37:56.187Z,-0.35
2018-11-29T09:40:24.992Z,-0.40
2018-11-29T09:42:53.730Z,-0.44
2018-11-29T09:45:23.313Z,-0.34
2018-11-29T09:47:53.506Z,-0.28
2018-11-29T09:50:22.881Z,-0.50
2018-11-29T09:52:51.779Z,-0.37
2018-11-29T09:55:20.594Z,-0.63
2018-11-29T09:57:50.382Z,-0.64
2018-11-29T10:00:27.629Z,-0.49
2018-11-29T10:03:11.313Z,-0.35
2018-11-29T10:05:40.923Z,-0.47
2018-11-29T10:08:11.997Z,-0.50
2018-11-29T10:10:39.579Z,-0.50
2018-11-29T10:13:08.415Z,-0.55
2018-11-29T10:15:37.372Z,-0.61
2018-11-29T10:18:06.749Z,-0.52
2018-11-29T10:20:35.567Z,-0.51
2018-11-29T10:23:04.688Z,-0.32
2018-11-29T10:25:33.744Z,-0.21
2018-11-29T10:28:04.668Z,-0.13
2018-11-29T10:30:37.490Z,-0.11
2018-11-29T10:33:06.358Z,-0.14
2018-11-29T10:35:35.195Z,-0.37
2018-11-29T10:38:04.037Z,-0.70
2018-11-29T10:40:32.909Z,-0.68
2018-11-29T10:43:01.774Z,-0.61
2018-11-29T10:45:30.591Z,-0.65
2018-11-29T10:47:59.363Z,-0.55
2018-11-29T10:50:28.190Z,-0.44
2018-11-29T10:52:57.015Z,-0.36
2018-11-29T10:55:26.020Z,-0.53
2018-11-29T10:57:54.837Z,-0.69
2018-11-29T11:00:29.756Z,-0.69
2018-11-29T11:03:07.582Z,-0.51
2018-11-29T11:05:37.435Z,-0.25
2018-11-29T11:08:08.940Z,-0.34
2018-11-29T11:10:38.658Z,-0.68
2018-11-29T11:13:07.903Z,-0.68
2018-11-29T11:15:36.818Z,-0.77
2018-11-29T11:18:06.769Z,-0.72
2018-11-29T11:20:35.504Z,-0.65
2018-11-29T11:23:04.395Z,-0.69
2018-11-29T11:25:33.311Z,-0.42
2018-11-29T11:28:02.175Z,-0.92
2018-11-29T11:30:31.099Z,-0.86
2018-11-29T11:32:59.885Z,-1.46
2018-11-29T11:35:29.899Z,-1.19
2018-11-29T11:37:58.745Z,-1.13
2018-11-29T11:40:27.576Z,-1.00
2018-11-29T11:42:56.421Z,-0.99
2018-11-29T11:45:25.308Z,-1.23
2018-11-29T11:47:54.079Z,-1.43
2018-11-29T11:50:24.037Z,-1.68
2018-11-29T11:52:53.636Z,-1.81
2018-11-29T11:55:29.950Z,-1.63
2018-11-29T11:57:52.209Z,-1.72
2018-11-29T12:00:24.515Z,-2.04
2018-11-29T12:02:55.758Z,-2.23
2018-11-29T12:05:27.240Z,-2.22
2018-11-29T12:07:56.179Z,-2.32
2018-11-29T12:10:25.112Z,-1.96
2018-11-29T12:12:55.772Z,-1.74
2018-11-29T12:15:24.614Z,-1.49
2018-11-29T12:17:53.427Z,-1.51
2018-11-29T12:20:22.289Z,-1.50
2018-11-29T12:22:51.145Z,-1.35
2018-11-29T12:25:22.546Z,-1.34
2018-11-29T12:27:52.148Z,-1.43
2018-11-29T12:30:45.718Z,-1.33
2018-11-29T12:33:14.803Z,-1.29
2018-11-29T12:35:43.609Z,-1.30
2018-11-29T12:38:12.630Z,-1.30
2018-11-29T12:40:41.422Z,-1.55
2018-11-29T12:43:10.241Z,-1.43
2018-11-29T12:45:39.052Z,-1.56
2018-11-29T12:48:07.932Z,-1.28
2018-11-29T12:50:39.751Z,-1.20
2018-11-29T12:53:08.997Z,-1.33
2018-11-29T12:55:41.446Z,-1.20
2018-11-29T12:58:10.297Z,-1.31
2018-11-29T13:00:39.288Z,-1.34
2018-11-29T13:03:08.294Z,-1.39
2018-11-29T13:05:38.703Z,-1.43
2018-11-29T13:08:08.292Z,-1.61
2018-11-29T13:10:37.247Z,-1.55
2018-11-29T13:13:07.205Z,-1.58
2018-11-29T13:15:36.053Z,-1.68
2018-11-29T13:18:06.787Z,-1.59
2018-11-29T13:20:35.756Z,-1.75
2018-11-29T13:23:04.679Z,-1.81
2018-11-29T13:25:33.503Z,-1.72
2018-11-29T13:28:02.388Z,-1.81
2018-11-29T13:30:31.208Z,-1.69
2018-11-29T13:33:00.354Z,-1.54
2018-11-29T13:35:34.295Z,-1.59
2018-11-29T13:38:08.154Z,-1.61
2018-11-29T13:40:36.984Z,-1.56
2018-11-29T13:43:06.211Z,-1.46
2018-11-29T13:45:35.222Z,-1.65
2018-11-29T13:48:04.080Z,-1.87
2018-11-29T13:50:33.014Z,-2.01
2018-11-29T13:53:02.136Z,-1.99
2018-11-29T13:55:31.068Z,-1.87
2018-11-29T13:57:59.980Z,-1.89
2018-11-29T14:00:30.777Z,-2.09
2018-11-29T14:03:02.297Z,-2.13
2018-11-29T14:05:31.315Z,-2.12
2018-11-29T14:08:00.317Z,-2.14
2018-11-29T14:10:29.340Z,-2.19
2018-11-29T14:12:58.342Z,-2.23
2018-11-29T14:15:28.677Z,-2.35
2018-11-29T14:17:57.579Z,-2.28
2018-11-29T14:20:26.618Z,-2.41
2018-11-29T14:22:55.683Z,-2.32
2018-11-29T14:25:24.575Z,-2.66
2018-11-29T14:27:54.939Z,-2.55
2018-11-29T14:30:29.667Z,-2.77
2018-11-29T14:32:59.977Z,-2.83
2018-11-29T14:35:29.015Z,-2.84
2018-11-29T14:37:58.097Z,-2.86
2018-11-29T14:40:28.261Z,-2.86
2018-11-29T14:42:57.253Z,-2.92
2018-11-29T14:45:27.968Z,-2.81
2018-11-29T14:47:57.059Z,-2.76
2018-11-29T14:50:32.099Z,-2.84
2018-11-29T14:53:01.246Z,-2.86
2018-11-29T14:55:30.122Z,-2.85
2018-11-29T14:57:59.512Z,-2.85
2018-11-29T15:00:28.519Z,-2.87
2018-11-29T15:02:58.435Z,-2.85
2018-11-29T15:05:28.691Z,-2.78
2018-11-29T15:07:57.554Z,-2.89
2018-11-29T15:10:26.637Z,-2.78
2018-11-29T15:12:56.646Z,-2.64
2018-11-29T15:15:25.679Z,-2.63
2018-11-29T15:17:55.246Z,-2.71
2018-11-29T15:20:29.579Z,-2.82
2018-11-29T15:22:58.459Z,-2.79
2018-11-29T15:25:27.515Z,-2.80
2018-11-29T15:27:56.551Z,-2.81
2018-11-29T15:30:25.666Z,-2.72
2018-11-29T15:32:54.609Z,-2.68
2018-11-29T15:35:23.704Z,-2.78
2018-11-29T15:37:52.808Z,-2.77
2018-11-29T15:40:21.770Z,-2.78
2018-11-29T15:42:50.653Z,-2.92
2018-11-29T15:45:22.936Z,-2.84
2018-11-29T15:47:51.976Z,-2.90
2018-11-29T15:50:20.921Z,-2.96
2018-11-29T15:52:49.887Z,-2.96
2018-11-29T15:55:20.219Z,-2.97
2018-11-29T15:57:50.489Z,-2.96
2018-11-29T16:00:23.489Z,-2.96
2018-11-29T16:02:52.993Z,-3.04
2018-11-29T16:05:21.847Z,-3.01
2018-11-29T16:07:50.776Z,-3.02
2018-11-29T16:10:21.867Z,-2.89
2018-11-29T16:12:50.862Z,-2.94
2018-11-29T16:15:20.377Z,-2.81
2018-11-29T16:17:51.039Z,-2.80
2018-11-29T16:20:26.979Z,-2.84
2018-11-29T16:22:56.773Z,-2.88
2018-11-29T16:25:25.736Z,-2.91
2018-11-29T16:27:54.692Z,-2.81
2018-11-29T16:30:28.533Z,-2.81
2018-11-29T16:32:59.132Z,-2.78
2018-11-29T16:35:28.059Z,-2.81
2018-11-29T16:37:57.046Z,-2.85
2018-11-29T16:40:26.043Z,-2.76
2018-11-29T16:42:54.955Z,-2.79
2018-11-29T16:45:23.957Z,-2.72
2018-11-29T16:47:52.829Z,-2.83
2018-11-29T16:50:21.818Z,-2.85
2018-11-29T16:52:50.791Z,-2.87
2018-11-29T16:55:19.731Z,-2.85
2018-11-29T16:57:52.590Z,-2.84
2018-11-29T17:00:22.563Z,-2.76
2018-11-29T17:02:51.465Z,-2.72
2018-11-29T17:05:20.532Z,-2.70
2018-11-29T17:07:49.632Z,-2.78
2018-11-29T17:10:19.871Z,-2.82
2018-11-29T17:12:58.894Z,-2.73
2018-11-29T17:15:28.970Z,-2.78
2018-11-29T17:17:57.842Z,-2.83
2018-11-29T17:20:26.743Z,-2.82
2018-11-29T17:22:55.722Z,-2.87
2018-11-29T17:25:24.923Z,-2.82
2018-11-29T17:27:53.891Z,-2.76
2018-11-29T17:30:23.819Z,-2.72
2018-11-29T17:32:55.735Z,-2.67
2018-11-29T17:35:24.810Z,-2.62
2018-11-29T17:37:55.535Z,-2.68
2018-11-29T17:40:24.549Z,-2.67
2018-11-29T17:42:54.404Z,-2.60
2018-11-29T17:45:30.348Z,-2.47
2018-11-29T17:48:05.085Z,-2.60
2018-11-29T17:50:36.499Z,-2.62
2018-11-29T17:53:06.108Z,-2.71
2018-11-29T17:55:35.296Z,-2.79
2018-11-29T17:58:06.550Z,-2.88
2018-11-29T18:00:35.577Z,-2.82
2018-11-29T18:03:05.742Z,-2.68
2018-11-29T18:05:34.712Z,-2.81
2018-11-29T18:08:03.667Z,-2.81
2018-11-29T18:10:34.359Z,-2.72
2018-11-29T18:13:06.298Z,-2.73
2018-11-29T18:15:35.993Z,-2.73
2018-11-29T18:18:05.431Z,-2.78
2018-11-29T18:20:34.546Z,-2.80
2018-11-29T18:23:03.417Z,-2.78
2018-11-29T18:25:32.401Z,-2.75
2018-11-29T18:28:01.264Z,-2.88
2018-11-29T18:30:31.225Z,-2.95
2018-11-29T18:33:00.679Z,-2.99
2018-11-29T18:35:29.541Z,-3.11
2018-11-29T18:37:58.421Z,-3.12
2018-11-29T18:40:27.250Z,-3.17
2018-11-29T18:42:57.530Z,-2.95
2018-11-29T18:45:26.786Z,-2.88
2018-11-29T18:47:56.714Z,-2.96
2018-11-29T18:50:26.874Z,-3.02
2018-11-29T18:52:55.933Z,-3.16
2018-11-29T18:55:27.022Z,-3.47
2018-11-29T18:57:57.599Z,-3.43
2018-11-29T19:00:29.240Z,-3.23
2018-11-29T19:02:58.294Z,-3.22
2018-11-29T19:05:27.386Z,-3.35
2018-11-29T19:07:57.555Z,-3.31
2018-11-29T19:10:26.691Z,-3.29
2018-11-29T19:13:00.100Z,-3.29
2018-11-29T19:15:30.219Z,-3.28
2018-11-29T19:17:59.179Z,-3.17
2018-11-29T19:20:28.099Z,-3.06
2018-11-29T19:22:57.948Z,-3.05
2018-11-29T19:25:28.201Z,-3.07
2018-11-29T19:27:57.294Z,-3.00
2018-11-29T19:30:33.105Z,-2.94
2018-11-29T19:33:05.480Z,-2.89
2018-11-29T19:35:34.342Z,-2.91
2018-11-29T19:38:04.650Z,-2.93
2018-11-29T19:40:33.575Z,-3.10
2018-11-29T19:43:03.568Z,-3.13
2018-11-29T19:45:35.995Z,-3.31
2018-11-29T19:48:05.343Z,-3.51
2018-11-29T19:50:57.399Z,-3.64
2018-11-29T19:53:27.437Z,-3.74
2018-11-29T19:55:58.667Z,-3.94
2018-11-29T19:58:27.793Z,-3.93
2018-11-29T20:00:58.471Z,-3.87
2018-11-29T20:03:27.505Z,-3.90
2018-11-29T20:05:56.397Z,-3.95
2018-11-29T20:08:25.284Z,-4.03
2018-11-29T20:10:55.182Z,-3.95
2018-11-29T20:13:24.184Z,-3.90
2018-11-29T20:15:54.304Z,-3.91
2018-11-29T20:18:23.281Z,-4.00
2018-11-29T20:20:52.598Z,-4.12
2018-11-29T20:23:23.613Z,-4.18
2018-11-29T20:25:53.814Z,-4.34
2018-11-29T20:28:22.836Z,-4.28
2018-11-29T20:30:59.505Z,-4.37
2018-11-29T20:33:28.832Z,-4.44
2018-11-29T20:35:57.744Z,-4.44
2018-11-29T20:38:26.667Z,-4.27
2018-11-29T20:40:55.738Z,-4.21
2018-11-29T20:43:24.725Z,-4.05
2018-11-29T20:45:55.039Z,-3.99
2018-11-29T20:48:26.465Z,-4.04
2018-11-29T20:50:56.502Z,-3.96
2018-11-29T20:53:27.339Z,-3.93
2018-11-29T20:55:56.309Z,-3.99
2018-11-29T20:58:25.382Z,-3.99
2018-11-29T21:00:54.334Z,-4.04
2018-11-29T21:03:23.190Z,-4.21
2018-11-29T21:05:52.397Z,-4.12
2018-11-29T21:08:21.373Z,-4.09
2018-11-29T21:10:50.542Z,-3.97
2018-11-29T21:13:19.542Z,-3.92
2018-11-29T21:15:48.382Z,-3.94
2018-11-29T21:18:17.258Z,-3.88
2018-11-29T21:20:46.114Z,-3.77
2018-11-29T21:23:16.239Z,-3.76
2018-11-29T21:25:45.826Z,-3.72
2018-11-29T21:28:14.738Z,-3.79
2018-11-29T21:30:43.572Z,-3.88
2018-11-29T21:33:13.105Z,-3.86
2018-11-29T21:35:42.039Z,-3.88
2018-11-29T21:38:16.159Z,-4.01
2018-11-29T21:40:50.007Z,-4.09
2018-11-29T21:43:18.939Z,-4.20
2018-11-29T21:45:48.280Z,-4.22
2018-11-29T21:48:17.171Z,-4.32
2018-11-29T21:50:46.094Z,-4.35
2018-11-29T21:53:14.991Z,-4.26
2018-11-29T21:55:43.786Z,-4.20
2018-11-29T21:58:12.611Z,-4.24
2018-11-29T22:00:41.401Z,-4.19
2018-11-29T22:03:10.311Z,-4.22
2018-11-29T22:05:39.288Z,-4.42
2018-11-29T22:08:08.148Z,-4.38
2018-11-29T22:10:37.149Z,-4.28
2018-11-29T22:13:06.108Z,-4.41
2018-11-29T22:15:35.078Z,-4.32
2018-11-29T22:18:23.952Z,-4.44
2018-11-29T22:20:57.063Z,-4.51
2018-11-29T22:23:26.140Z,-4.46
2018-11-29T22:25:56.215Z,-4.42
2018-11-29T22:28:25.178Z,-4.59
2018-11-29T22:30:55.134Z,-4.74
2018-11-29T22:33:24.185Z,-4.80
2018-11-29T22:35:53.106Z,-4.81
2018-11-29T22:38:22.068Z,-4.86
2018-11-29T22:40:50.898Z,-4.75
2018-11-29T22:43:19.766Z,-4.64
2018-11-29T22:45:48.692Z,-4.82
2018-11-29T22:48:17.656Z,-4.81
2018-11-29T22:50:53.067Z,-4.77
2018-11-29T22:53:22.007Z,-4.77
2018-11-29T22:55:50.865Z,-4.90
2018-11-29T22:58:19.776Z,-4.80
2018-11-29T23:00:50.009Z,-5.03
2018-11-29T23:03:18.906Z,-5.04
2018-11-29T23:05:47.913Z,-5.01
2018-11-29T23:08:16.788Z,-5.02
2018-11-29T23:10:45.790Z,-5.06
2018-11-29T23:13:14.705Z,-4.95
2018-11-29T23:15:43.593Z,-5.00
2018-11-29T23:18:12.944Z,-5.00
2018-11-29T23:20:41.990Z,-5.01
2018-11-29T23:23:10.961Z,-5.00
2018-11-29T23:25:39.846Z,-5.11
2018-11-29T23:28:08.753Z,-5.05
2018-11-29T23:30:37.630Z,-5.07
2018-11-29T23:33:06.584Z,-5.11
2018-11-29T23:35:35.449Z,-5.03
2018-11-29T23:38:04.465Z,-4.98
2018-11-29T23:40:33.476Z,-4.86
2018-11-29T23:43:02.384Z,-4.98
2018-11-29T23:45:31.325Z,-5.10
2018-11-29T23:48:00.231Z,-5.19
2018-11-29T23:50:29.147Z,-5.18
2018-11-29T23:52:58.005Z,-5.09
2018-11-29T23:55:26.960Z,-5.04
2018-11-29T23:57:55.799Z,-5.06
